Stations météo

réclame
Mon MeteoGroup
Langdon Bay, Grande-Bretagne (3796): Température de l'air & dewpoint: 19.03.2019 10:00:00 - 25.03.2019 10:00:00 (GMT)Langdon Bay, Grande-Bretagne (3796): Vitesse du vent & gusts: 19.03.2019 10:00:00 - 25.03.2019 10:00:00 (GMT)Langdon Bay, Grande-Bretagne (3796): Direction du vent: 19.03.2019 10:00:00 - 25.03.2019 10:00:00 (GMT)Langdon Bay, Grande-Bretagne (3796): reduced air pressure: 19.03.2019 10:00:00 - 25.03.2019 10:00:00 (GMT)
Date & Time tt [°C] td [°C] ff [km/h] ff [knt] fx [km/h] fx [knt] dd ppp [hPa]
25.03.2019 10:00:00 9,5 2,9 34 18 52 28 NNW 1030,4
25.03.2019 09:00:00 7,9 2,0 35 19 54 29 NNW 1029,8
25.03.2019 08:00:00 6,9 2,0 29 16 46 25 NNW 1028,9
25.03.2019 07:00:00 5,2 1,3 29 16 - - NNW 1028,1
25.03.2019 06:00:00 4,3 0,7 29 16 46 25 NNW 1027,6
25.03.2019 05:00:00 5,1 1,1 29 16 - - NW 1027,0
25.03.2019 04:00:00 5,8 1,7 24 13 - - NW 1026,8
25.03.2019 03:00:00 6,0 2,0 21 11 - - WNW 1026,7
25.03.2019 02:00:00 6,5 2,5 24 13 - - WNW 1026,8
25.03.2019 01:00:00 6,3 1,7 21 11 - - WNW 1026,9
25.03.2019 00:00:00 6,5 0,9 18 10 - - WNW 1027,3
24.03.2019 23:00:00 6,7 0,3 16 9 - - WNW 1027,8
24.03.2019 22:00:00 6,6 0,7 22 12 - - WNW 1027,8
24.03.2019 21:00:00 7,1 1,1 21 11 - - NW 1028,3
24.03.2019 20:00:00 6,7 3,8 13 7 - - WNW 1028,3
24.03.2019 19:00:00 6,8 4,2 13 7 - - W 1028,4
24.03.2019 18:00:00 7,1 2,7 18 10 - - WSW 1028,2
24.03.2019 17:00:00 8,0 3,6 18 10 - - WSW 1028,2
24.03.2019 16:00:00 8,9 2,8 13 7 - - SSW 1028,5
24.03.2019 15:00:00 9,9 2,7 9 5 - - S 1028,8
24.03.2019 14:00:00 9,8 3,2 8 4 - - ESE 1029,3
24.03.2019 13:00:00 12,7 -1,4 11 6 - - N 1029,9
24.03.2019 12:00:00 12,5 0,0 15 8 - - N 1030,5
24.03.2019 11:00:00 11,3 2,6 22 12 - - N 1030,7
24.03.2019 10:00:00 9,1 7,0 21 11 - - NNW 1030,8
24.03.2019 09:00:00 7,7 5,6 15 8 - - N 1030,9
24.03.2019 08:00:00 5,7 5,3 16 9 - - N 1030,9
24.03.2019 07:00:00 3,3 3,2 18 10 - - NNW 1030,8
24.03.2019 06:00:00 2,4 2,2 0 0 - - N 1029,9
24.03.2019 05:00:00 2,0 1,8 15 8 - - N 1030,8
24.03.2019 04:00:00 1,9 1,6 18 10 - - NNE 1031,0
24.03.2019 03:00:00 2,1 1,8 18 10 - - NNE 1031,3
24.03.2019 02:00:00 2,3 1,9 16 9 - - N 1031,8
24.03.2019 01:00:00 2,5 2,1 18 10 - - N 1032,3
24.03.2019 00:00:00 2,8 2,2 16 9 - - N 1032,6
23.03.2019 23:00:00 3,4 2,7 18 10 - - NNE 1032,6
23.03.2019 22:00:00 4,3 3,3 18 10 - - NE 1032,6
23.03.2019 21:00:00 5,1 4,0 21 11 - - NE 1032,8
23.03.2019 20:00:00 5,6 4,2 21 11 - - NE 1032,7
23.03.2019 19:00:00 6,3 4,7 21 11 - - ENE 1032,5
23.03.2019 18:00:00 7,5 5,4 18 10 - - ENE 1032,4
23.03.2019 17:00:00 8,2 4,3 22 12 - - ENE 1032,4
23.03.2019 16:00:00 8,8 4,9 26 14 - - NE 1032,4
23.03.2019 15:00:00 9,4 4,2 28 15 - - NE 1032,4
23.03.2019 14:00:00 9,8 4,9 24 13 - - NNE 1032,4
23.03.2019 13:00:00 10,0 6,4 28 15 - - NE 1032,3
23.03.2019 12:00:00 10,5 7,5 24 13 - - NNE 1032,2
23.03.2019 11:00:00 10,8 8,3 22 12 - - NNE 1031,7
23.03.2019 10:00:00 9,4 8,1 18 10 - - N 1031,7
23.03.2019 09:00:00 8,6 7,6 21 11 - - NNW 1031,2
23.03.2019 08:00:00 8,5 7,3 16 9 - - NNW 1030,6
23.03.2019 07:00:00 8,5 7,1 21 11 - - NNW 1030,2
23.03.2019 06:00:00 8,5 7,0 16 9 - - NW 1029,7
23.03.2019 05:00:00 8,2 6,9 21 11 - - NW 1029,2
23.03.2019 04:00:00 7,5 6,8 16 9 - - WNW 1028,9
23.03.2019 03:00:00 6,5 6,1 15 8 - - W 1028,9
23.03.2019 02:00:00 6,7 6,0 13 7 - - W 1029,0
23.03.2019 01:00:00 7,0 6,1 8 4 - - WSW 1029,0
23.03.2019 00:00:00 8,3 6,6 5 3 - - WSW 1028,7
22.03.2019 23:00:00 8,3 6,5 5 3 - - WSW 1028,9
22.03.2019 22:00:00 8,3 6,3 9 5 - - W 1028,8
22.03.2019 21:00:00 8,1 7,1 11 6 - - W 1028,7
22.03.2019 20:00:00 8,1 7,7 18 10 - - WSW 1028,5
22.03.2019 19:00:00 8,2 7,6 18 10 - - WSW 1028,4
22.03.2019 18:00:00 8,2 7,6 16 9 - - WSW 1027,7
22.03.2019 17:00:00 8,4 7,6 21 11 - - WSW 1027,6
22.03.2019 16:00:00 8,5 7,5 15 8 - - WSW 1027,7
22.03.2019 15:00:00 8,4 7,4 16 9 - - WSW 1027,9
22.03.2019 14:00:00 8,4 7,4 16 9 - - SW 1028,1
22.03.2019 13:00:00 8,3 7,4 11 6 - - SW 1028,9
22.03.2019 12:00:00 8,6 7,5 11 6 - - SW 1029,4
22.03.2019 11:00:00 8,3 7,3 11 6 - - SW 1029,8
22.03.2019 10:00:00 7,9 7,1 11 6 - - SW 1030,1
22.03.2019 09:00:00 7,7 7,2 13 7 - - SSW 1030,1
22.03.2019 08:00:00 7,5 7,0 11 6 - - SW 1030,3
22.03.2019 07:00:00 7,3 6,9 11 6 - - SSW 1030,5
22.03.2019 06:00:00 7,3 7,0 8 4 - - SW 1030,4
22.03.2019 05:00:00 7,3 7,0 9 5 - - SW 1030,4
22.03.2019 04:00:00 7,3 6,9 13 7 - - SSW 1030,4
22.03.2019 03:00:00 7,3 6,8 15 8 - - SSW 1031,0
22.03.2019 02:00:00 7,4 6,6 13 7 - - S 1031,2
22.03.2019 01:00:00 7,9 7,1 13 7 - - S 1031,4
22.03.2019 00:00:00 8,5 8,4 9 5 - - S 1031,7
21.03.2019 23:00:00 8,6 8,5 5 3 - - SW 1032,4
21.03.2019 22:00:00 8,5 8,4 4 2 - - SW 1032,9
21.03.2019 21:00:00 8,4 8,3 4 2 - - SSW 1032,9
21.03.2019 20:00:00 8,5 8,3 8 4 - - SW 1033,1
21.03.2019 19:00:00 8,5 8,2 9 5 - - WSW 1032,9
21.03.2019 18:00:00 8,6 8,3 8 4 - - SW 1032,9
21.03.2019 17:00:00 8,9 8,4 11 6 - - WSW 1032,7
21.03.2019 16:00:00 9,0 8,3 15 8 - - WSW 1033,0
21.03.2019 15:00:00 9,4 8,3 13 7 - - WSW 1033,1
21.03.2019 14:00:00 9,8 8,5 11 6 - - WSW 1033,7
21.03.2019 13:00:00 9,6 8,8 11 6 - - WSW 1034,2
21.03.2019 12:00:00 9,4 8,8 13 7 - - WSW 1034,4
21.03.2019 11:00:00 9,9 8,8 13 7 - - WSW 1034,4
21.03.2019 10:00:00 9,0 7,4 2 1 - - SW 1034,6
21.03.2019 09:00:00 9,1 7,2 9 5 - - WSW 1034,5
21.03.2019 08:00:00 8,4 6,8 8 4 - - SW 1034,4
21.03.2019 07:00:00 7,9 6,7 18 10 - - W 1033,9
21.03.2019 06:00:00 7,9 7,1 18 10 - - WSW 1033,7
21.03.2019 05:00:00 7,9 7,4 18 10 - - WSW 1033,6
21.03.2019 04:00:00 7,5 7,3 16 9 - - WSW 1033,5
21.03.2019 03:00:00 7,8 7,4 26 14 - - WSW 1033,3
21.03.2019 02:00:00 8,2 7,8 16 9 - - WSW 1033,6
21.03.2019 01:00:00 8,3 7,8 18 10 - - WSW 1033,8
21.03.2019 00:00:00 8,4 7,7 22 12 - - WSW 1034,1
20.03.2019 23:00:00 8,6 7,9 15 8 - - WSW 1034,3
20.03.2019 22:00:00 8,5 8,2 15 8 - - WSW 1034,3
20.03.2019 21:00:00 8,4 8,3 16 9 - - WSW 1034,3
20.03.2019 20:00:00 8,4 8,4 21 11 - - WSW 1034,2
20.03.2019 19:00:00 8,4 8,4 15 8 - - WSW 1034,1
20.03.2019 18:00:00 8,4 8,4 22 12 - - WSW 1033,6
20.03.2019 17:00:00 8,5 8,4 21 11 - - WSW 1033,2
20.03.2019 16:00:00 8,9 8,6 11 6 - - SW 1033,3
20.03.2019 15:00:00 8,9 8,6 16 9 - - WSW 1033,6
20.03.2019 14:00:00 9,1 8,7 18 10 - - WSW 1033,4
20.03.2019 13:00:00 9,5 9,0 18 10 - - SW 1033,4
20.03.2019 12:00:00 9,4 9,2 11 6 - - SW 1033,9
20.03.2019 11:00:00 10,0 9,4 13 7 - - WSW 1033,7
20.03.2019 10:00:00 9,5 9,2 11 6 - - WSW 1033,3
20.03.2019 09:00:00 9,3 9,1 15 8 - - WSW 1032,9
20.03.2019 08:00:00 8,3 8,3 11 6 - - WSW 1032,6
20.03.2019 07:00:00 7,9 7,9 8 4 - - WSW 1032,5
20.03.2019 06:00:00 7,6 7,6 11 6 - - WSW 1031,8
20.03.2019 05:00:00 7,4 7,4 9 5 - - WSW 1031,4
20.03.2019 04:00:00 7,1 7,1 9 5 - - WSW 1031,1
20.03.2019 03:00:00 7,2 7,1 15 8 - - W 1031,1
20.03.2019 02:00:00 7,3 7,2 11 6 - - WSW 1031,3
20.03.2019 01:00:00 7,7 7,6 15 8 - - WSW 1031,4
20.03.2019 00:00:00 7,7 7,6 16 9 - - WSW 1031,0
19.03.2019 23:00:00 8,0 7,9 15 8 - - WSW 1030,8
19.03.2019 22:00:00 8,1 7,9 18 10 - - WSW 1030,5
19.03.2019 21:00:00 7,9 7,6 16 9 - - WSW 1030,4
19.03.2019 20:00:00 7,9 7,3 11 6 - - WSW 1030,0
19.03.2019 19:00:00 7,7 7,1 18 10 - - WSW 1029,9
19.03.2019 18:00:00 8,4 7,2 21 11 - - WSW 1028,9
19.03.2019 17:00:00 8,4 7,7 13 7 - - WSW 1028,5
19.03.2019 16:00:00 8,6 7,4 15 8 - - WSW 1028,3
19.03.2019 15:00:00 9,4 8,0 18 10 - - WSW 1028,2
19.03.2019 14:00:00 - - - - - - - -
19.03.2019 13:00:00 8,6 7,6 - - - - - 1028,6
19.03.2019 12:00:00 8,9 7,5 13 7 - - SW 1028,5
19.03.2019 11:00:00 9,1 7,0 15 8 - - SW 1028,2
19.03.2019 10:00:00 9,1 6,9 15 8 - - SW 1027,8

tt = Température de l'air
td = dewpoint
ff = Vitesse du vent
fx = gusts
dd = Direction du vent
ppp = reduced air pressure

stations d'obs. à proximité